sensor_id;sensor_type;location;lat;lon;timestamp;temperature;humidity
13713;DHT22;6928;50.546;7.120;2023-05-02T00:01:18;11.56;87.45
13713;DHT22;6928;50.546;7.120;2023-05-02T00:03:44;11.65;87.40
13713;DHT22;6928;50.546;7.120;2023-05-02T00:06:11;11.70;87.05
13713;DHT22;6928;50.546;7.120;2023-05-02T00:08:38;11.67;87.25
13713;DHT22;6928;50.546;7.120;2023-05-02T00:11:05;11.78;87.08
13713;DHT22;6928;50.546;7.120;2023-05-02T00:13:32;11.83;87.01
13713;DHT22;6928;50.546;7.120;2023-05-02T00:15:58;11.94;86.49
13713;DHT22;6928;50.546;7.120;2023-05-02T00:18:27;11.95;86.53
13713;DHT22;6928;50.546;7.120;2023-05-02T00:20:54;11.97;86.60
13713;DHT22;6928;50.546;7.120;2023-05-02T00:23:21;11.97;86.63
13713;DHT22;6928;50.546;7.120;2023-05-02T00:25:48;11.99;86.40
13713;DHT22;6928;50.546;7.120;2023-05-02T00:28:15;12.02;86.42
13713;DHT22;6928;50.546;7.120;2023-05-02T00:30:43;11.97;86.73
13713;DHT22;6928;50.546;7.120;2023-05-02T00:33:09;11.95;86.74
13713;DHT22;6928;50.546;7.120;2023-05-02T00:35:39;11.90;86.95
13713;DHT22;6928;50.546;7.120;2023-05-02T00:38:06;11.93;86.81
13713;DHT22;6928;50.546;7.120;2023-05-02T00:40:42;11.93;86.64
13713;DHT22;6928;50.546;7.120;2023-05-02T00:43:10;11.93;86.42
13713;DHT22;6928;50.546;7.120;2023-05-02T00:45:37;11.94;86.06
13713;DHT22;6928;50.546;7.120;2023-05-02T00:48:05;11.94;86.15
13713;DHT22;6928;50.546;7.120;2023-05-02T00:50:34;11.94;86.32
13713;DHT22;6928;50.546;7.120;2023-05-02T00:53:03;11.94;86.51
13713;DHT22;6928;50.546;7.120;2023-05-02T00:55:30;11.86;86.63
13713;DHT22;6928;50.546;7.120;2023-05-02T00:57:59;11.90;86.43
13713;DHT22;6928;50.546;7.120;2023-05-02T01:00:35;11.83;86.63
13713;DHT22;6928;50.546;7.120;2023-05-02T01:03:14;11.81;86.66
13713;DHT22;6928;50.546;7.120;2023-05-02T01:05:54;11.83;86.38
13713;DHT22;6928;50.546;7.120;2023-05-02T01:08:34;11.87;86.20
13713;DHT22;6928;50.546;7.120;2023-05-02T01:11:10;11.81;86.36
13713;DHT22;6928;50.546;7.120;2023-05-02T01:13:42;11.78;86.25
13713;DHT22;6928;50.546;7.120;2023-05-02T01:16:11;11.77;86.51
13713;DHT22;6928;50.546;7.120;2023-05-02T01:18:41;11.80;86.35
13713;DHT22;6928;50.546;7.120;2023-05-02T01:21:09;11.81;86.38
13713;DHT22;6928;50.546;7.120;2023-05-02T01:23:59;11.80;86.53
13713;DHT22;6928;50.546;7.120;2023-05-02T01:26:34;11.78;86.58
13713;DHT22;6928;50.546;7.120;2023-05-02T01:29:05;11.80;86.63
13713;DHT22;6928;50.546;7.120;2023-05-02T01:31:35;11.80;86.53
13713;DHT22;6928;50.546;7.120;2023-05-02T01:34:05;11.81;86.37
13713;DHT22;6928;50.546;7.120;2023-05-02T01:36:36;11.77;86.43
13713;DHT22;6928;50.546;7.120;2023-05-02T01:39:06;11.78;86.51
13713;DHT22;6928;50.546;7.120;2023-05-02T01:41:35;11.80;86.52
13713;DHT22;6928;50.546;7.120;2023-05-02T01:44:05;11.71;86.70
13713;DHT22;6928;50.546;7.120;2023-05-02T01:46:36;11.76;86.52
13713;DHT22;6928;50.546;7.120;2023-05-02T01:49:06;11.71;86.50
13713;DHT22;6928;50.546;7.120;2023-05-02T01:51:37;11.73;86.49
13713;DHT22;6928;50.546;7.120;2023-05-02T01:54:07;11.73;86.48
13713;DHT22;6928;50.546;7.120;2023-05-02T01:56:35;11.69;86.33
13713;DHT22;6928;50.546;7.120;2023-05-02T01:59:08;11.71;86.10
13713;DHT22;6928;50.546;7.120;2023-05-02T02:01:38;11.71;86.34
13713;DHT22;6928;50.546;7.120;2023-05-02T02:04:08;11.69;86.27
13713;DHT22;6928;50.546;7.120;2023-05-02T02:06:36;11.63;86.11
13713;DHT22;6928;50.546;7.120;2023-05-02T02:09:04;11.59;86.00
13713;DHT22;6928;50.546;7.120;2023-05-02T02:11:34;11.62;86.24
13713;DHT22;6928;50.546;7.120;2023-05-02T02:14:08;11.57;86.16
13713;DHT22;6928;50.546;7.120;2023-05-02T02:16:37;11.57;86.27
13713;DHT22;6928;50.546;7.120;2023-05-02T02:19:11;11.60;86.21
13713;DHT22;6928;50.546;7.120;2023-05-02T02:21:42;11.55;86.36
13713;DHT22;6928;50.546;7.120;2023-05-02T02:24:09;11.52;86.28
13713;DHT22;6928;50.546;7.120;2023-05-02T02:26:37;11.50;86.24
13713;DHT22;6928;50.546;7.120;2023-05-02T02:29:03;11.50;86.37
13713;DHT22;6928;50.546;7.120;2023-05-02T02:31:32;11.47;86.30
13713;DHT22;6928;50.546;7.120;2023-05-02T02:34:00;11.34;86.52
13713;DHT22;6928;50.546;7.120;2023-05-02T02:36:33;11.34;86.75
13713;DHT22;6928;50.546;7.120;2023-05-02T02:39:11;11.30;86.95
13713;DHT22;6928;50.546;7.120;2023-05-02T02:41:47;11.35;86.89
13713;DHT22;6928;50.546;7.120;2023-05-02T02:44:27;11.34;86.92
13713;DHT22;6928;50.546;7.120;2023-05-02T02:47:05;11.28;87.16
13713;DHT22;6928;50.546;7.120;2023-05-02T02:49:46;11.28;87.25
13713;DHT22;6928;50.546;7.120;2023-05-02T02:52:22;11.26;87.32
13713;DHT22;6928;50.546;7.120;2023-05-02T02:54:55;11.25;87.58
13713;DHT22;6928;50.546;7.120;2023-05-02T02:57:35;11.19;87.66
13713;DHT22;6928;50.546;7.120;2023-05-02T03:00:08;11.20;87.84
13713;DHT22;6928;50.546;7.120;2023-05-02T03:02:41;11.18;87.72
13713;DHT22;6928;50.546;7.120;2023-05-02T03:05:10;11.11;88.08
13713;DHT22;6928;50.546;7.120;2023-05-02T03:07:37;11.15;88.07
13713;DHT22;6928;50.546;7.120;2023-05-02T03:10:04;11.07;88.33
13713;DHT22;6928;50.546;7.120;2023-05-02T03:12:32;11.05;88.46
13713;DHT22;6928;50.546;7.120;2023-05-02T03:15:13;11.01;88.69
13713;DHT22;6928;50.546;7.120;2023-05-02T03:17:46;10.98;88.68
13713;DHT22;6928;50.546;7.120;2023-05-02T03:20:12;10.94;88.71
13713;DHT22;6928;50.546;7.120;2023-05-02T03:22:39;10.83;88.60
13713;DHT22;6928;50.546;7.120;2023-05-02T03:25:07;10.80;88.79
13713;DHT22;6928;50.546;7.120;2023-05-02T03:27:34;10.77;88.78
13713;DHT22;6928;50.546;7.120;2023-05-02T03:30:00;10.80;88.78
13713;DHT22;6928;50.546;7.120;2023-05-02T03:32:27;10.74;88.79
13713;DHT22;6928;50.546;7.120;2023-05-02T03:34:55;10.70;89.01
13713;DHT22;6928;50.546;7.120;2023-05-02T03:37:23;10.74;88.84
13713;DHT22;6928;50.546;7.120;2023-05-02T03:39:50;10.67;88.95
13713;DHT22;6928;50.546;7.120;2023-05-02T03:42:16;10.73;89.01
13713;DHT22;6928;50.546;7.120;2023-05-02T03:44:43;10.73;88.90
13713;DHT22;6928;50.546;7.120;2023-05-02T03:47:10;10.64;88.82
13713;DHT22;6928;50.546;7.120;2023-05-02T03:49:38;10.64;88.59
13713;DHT22;6928;50.546;7.120;2023-05-02T03:52:06;10.70;88.61
13713;DHT22;6928;50.546;7.120;2023-05-02T03:54:33;10.67;88.57
13713;DHT22;6928;50.546;7.120;2023-05-02T03:57:00;10.68;88.40
13713;DHT22;6928;50.546;7.120;2023-05-02T03:59:32;10.63;88.25
13713;DHT22;6928;50.546;7.120;2023-05-02T04:01:59;10.64;88.35
13713;DHT22;6928;50.546;7.120;2023-05-02T04:04:26;10.64;88.47
13713;DHT22;6928;50.546;7.120;2023-05-02T04:06:53;10.61;88.67
13713;DHT22;6928;50.546;7.120;2023-05-02T04:09:21;10.64;88.64
13713;DHT22;6928;50.546;7.120;2023-05-02T04:11:49;10.64;88.76
13713;DHT22;6928;50.546;7.120;2023-05-02T04:14:16;10.61;88.80
13713;DHT22;6928;50.546;7.120;2023-05-02T04:16:47;10.67;88.75
13713;DHT22;6928;50.546;7.120;2023-05-02T04:19:14;10.68;88.95
13713;DHT22;6928;50.546;7.120;2023-05-02T04:21:41;10.70;88.68
13713;DHT22;6928;50.546;7.120;2023-05-02T04:24:08;10.67;88.87
13713;DHT22;6928;50.546;7.120;2023-05-02T04:26:36;10.66;88.94
13713;DHT22;6928;50.546;7.120;2023-05-02T04:29:03;10.61;89.28
13713;DHT22;6928;50.546;7.120;2023-05-02T04:31:30;10.64;89.29
13713;DHT22;6928;50.546;7.120;2023-05-02T04:33:57;10.63;89.38
13713;DHT22;6928;50.546;7.120;2023-05-02T04:36:24;10.63;89.41
13713;DHT22;6928;50.546;7.120;2023-05-02T04:38:52;10.59;89.91
13713;DHT22;6928;50.546;7.120;2023-05-02T04:41:19;10.51;90.06
13713;DHT22;6928;50.546;7.120;2023-05-02T04:43:48;10.53;90.13
13713;DHT22;6928;50.546;7.120;2023-05-02T04:46:16;10.51;90.29
13713;DHT22;6928;50.546;7.120;2023-05-02T04:48:43;10.53;90.26
13713;DHT22;6928;50.546;7.120;2023-05-02T04:51:10;10.60;90.16
13713;DHT22;6928;50.546;7.120;2023-05-02T04:53:37;10.73;90.39
13713;DHT22;6928;50.546;7.120;2023-05-02T04:56:05;10.67;90.39
13713;DHT22;6928;50.546;7.120;2023-05-02T04:58:32;10.64;90.18
13713;DHT22;6928;50.546;7.120;2023-05-02T05:01:01;10.68;89.95
13713;DHT22;6928;50.546;7.120;2023-05-02T05:03:28;10.67;90.01
13713;DHT22;6928;50.546;7.120;2023-05-02T05:05:55;10.76;89.96
13713;DHT22;6928;50.546;7.120;2023-05-02T05:08:22;10.67;90.28
13713;DHT22;6928;50.546;7.120;2023-05-02T05:10:49;10.63;90.27
13713;DHT22;6928;50.546;7.120;2023-05-02T05:13:16;10.63;90.13
13713;DHT22;6928;50.546;7.120;2023-05-02T05:15:43;10.64;90.44
13713;DHT22;6928;50.546;7.120;2023-05-02T05:18:12;10.61;90.56
13713;DHT22;6928;50.546;7.120;2023-05-02T05:20:38;10.68;90.96
13713;DHT22;6928;50.546;7.120;2023-05-02T05:23:05;10.55;90.77
13713;DHT22;6928;50.546;7.120;2023-05-02T05:25:32;10.64;90.58
13713;DHT22;6928;50.546;7.120;2023-05-02T05:27:59;10.67;90.83
13713;DHT22;6928;50.546;7.120;2023-05-02T05:30:26;10.67;90.61
13713;DHT22;6928;50.546;7.120;2023-05-02T05:32:55;10.66;90.55
13713;DHT22;6928;50.546;7.120;2023-05-02T05:35:24;10.61;90.44
13713;DHT22;6928;50.546;7.120;2023-05-02T05:37:51;10.64;90.31
13713;DHT22;6928;50.546;7.120;2023-05-02T05:40:18;10.68;90.35
13713;DHT22;6928;50.546;7.120;2023-05-02T05:42:45;10.61;90.47
13713;DHT22;6928;50.546;7.120;2023-05-02T05:45:12;10.59;90.56
13713;DHT22;6928;50.546;7.120;2023-05-02T05:47:41;10.61;90.74
13713;DHT22;6928;50.546;7.120;2023-05-02T05:50:08;10.70;90.77
13713;DHT22;6928;50.546;7.120;2023-05-02T05:52:36;10.76;90.53
13713;DHT22;6928;50.546;7.120;2023-05-02T05:55:05;10.67;90.65
13713;DHT22;6928;50.546;7.120;2023-05-02T05:57:31;10.68;90.55
13713;DHT22;6928;50.546;7.120;2023-05-02T05:59:58;10.76;90.33
13713;DHT22;6928;50.546;7.120;2023-05-02T06:02:25;10.70;90.15
13713;DHT22;6928;50.546;7.120;2023-05-02T06:04:52;10.73;90.07
13713;DHT22;6928;50.546;7.120;2023-05-02T06:07:18;10.74;90.10
13713;DHT22;6928;50.546;7.120;2023-05-02T06:09:46;10.70;90.29
13713;DHT22;6928;50.546;7.120;2023-05-02T06:12:13;10.73;90.31
13713;DHT22;6928;50.546;7.120;2023-05-02T06:14:41;10.77;90.37
13713;DHT22;6928;50.546;7.120;2023-05-02T06:17:07;10.81;90.34
13713;DHT22;6928;50.546;7.120;2023-05-02T06:19:34;10.81;90.00
13713;DHT22;6928;50.546;7.120;2023-05-02T06:22:01;10.76;89.90
13713;DHT22;6928;50.546;7.120;2023-05-02T06:24:28;10.80;89.80
13713;DHT22;6928;50.546;7.120;2023-05-02T06:26:56;10.87;89.75
13713;DHT22;6928;50.546;7.120;2023-05-02T06:29:22;10.87;89.68
13713;DHT22;6928;50.546;7.120;2023-05-02T06:31:49;10.94;89.49
13713;DHT22;6928;50.546;7.120;2023-05-02T06:34:16;10.94;89.64
13713;DHT22;6928;50.546;7.120;2023-05-02T06:36:42;10.92;89.51
13713;DHT22;6928;50.546;7.120;2023-05-02T06:39:09;10.92;89.33
13713;DHT22;6928;50.546;7.120;2023-05-02T06:41:36;10.98;89.31
13713;DHT22;6928;50.546;7.120;2023-05-02T06:44:05;11.01;89.04
13713;DHT22;6928;50.546;7.120;2023-05-02T06:46:32;11.01;89.01
13713;DHT22;6928;50.546;7.120;2023-05-02T06:48:58;11.05;88.96
13713;DHT22;6928;50.546;7.120;2023-05-02T06:51:25;11.04;88.89
13713;DHT22;6928;50.546;7.120;2023-05-02T06:53:52;11.01;88.93
13713;DHT22;6928;50.546;7.120;2023-05-02T06:56:18;10.99;88.63
13713;DHT22;6928;50.546;7.120;2023-05-02T06:58:46;10.95;88.36
13713;DHT22;6928;50.546;7.120;2023-05-02T07:01:14;10.97;88.46
13713;DHT22;6928;50.546;7.120;2023-05-02T07:03:40;10.99;88.37
13713;DHT22;6928;50.546;7.120;2023-05-02T07:06:07;10.95;88.46
13713;DHT22;6928;50.546;7.120;2023-05-02T07:08:34;10.94;88.31
13713;DHT22;6928;50.546;7.120;2023-05-02T07:11:01;10.94;88.32
13713;DHT22;6928;50.546;7.120;2023-05-02T07:13:28;10.95;88.31
13713;DHT22;6928;50.546;7.120;2023-05-02T07:15:55;11.04;88.43
13713;DHT22;6928;50.546;7.120;2023-05-02T07:18:23;10.97;88.30
13713;DHT22;6928;50.546;7.120;2023-05-02T07:20:50;10.98;88.17
13713;DHT22;6928;50.546;7.120;2023-05-02T07:23:16;10.99;88.03
13713;DHT22;6928;50.546;7.120;2023-05-02T07:25:43;11.05;87.97
13713;DHT22;6928;50.546;7.120;2023-05-02T07:28:10;11.04;87.86
13713;DHT22;6928;50.546;7.120;2023-05-02T07:30:36;11.11;87.97
13713;DHT22;6928;50.546;7.120;2023-05-02T07:33:03;11.15;87.95
13713;DHT22;6928;50.546;7.120;2023-05-02T07:35:31;11.12;87.73
13713;DHT22;6928;50.546;7.120;2023-05-02T07:37:58;11.19;87.62
13713;DHT22;6928;50.546;7.120;2023-05-02T07:40:25;11.22;87.54
13713;DHT22;6928;50.546;7.120;2023-05-02T07:42:52;11.19;87.51
13713;DHT22;6928;50.546;7.120;2023-05-02T07:45:19;11.29;87.60
13713;DHT22;6928;50.546;7.120;2023-05-02T07:47:46;11.30;87.32
13713;DHT22;6928;50.546;7.120;2023-05-02T07:50:13;11.19;87.54
13713;DHT22;6928;50.546;7.120;2023-05-02T07:52:41;11.12;88.63
13713;DHT22;6928;50.546;7.120;2023-05-02T07:55:08;11.11;89.33
13713;DHT22;6928;50.546;7.120;2023-05-02T07:57:35;10.97;89.95
13713;DHT22;6928;50.546;7.120;2023-05-02T08:00:03;11.14;90.15
13713;DHT22;6928;50.546;7.120;2023-05-02T08:02:32;11.09;90.19
13713;DHT22;6928;50.546;7.120;2023-05-02T08:05:01;10.99;90.21
13713;DHT22;6928;50.546;7.120;2023-05-02T08:07:27;10.99;90.26
13713;DHT22;6928;50.546;7.120;2023-05-02T08:09:55;11.05;90.87
13713;DHT22;6928;50.546;7.120;2023-05-02T08:12:22;10.94;90.97
13713;DHT22;6928;50.546;7.120;2023-05-02T08:14:49;10.99;91.08
13713;DHT22;6928;50.546;7.120;2023-05-02T08:17:15;10.97;91.29
13713;DHT22;6928;50.546;7.120;2023-05-02T08:19:42;11.12;91.40
13713;DHT22;6928;50.546;7.120;2023-05-02T08:22:09;11.05;91.06
13713;DHT22;6928;50.546;7.120;2023-05-02T08:24:36;11.07;91.01
13713;DHT22;6928;50.546;7.120;2023-05-02T08:27:04;11.11;90.79
13713;DHT22;6928;50.546;7.120;2023-05-02T08:29:31;11.08;90.29
13713;DHT22;6928;50.546;7.120;2023-05-02T08:31:58;10.98;90.32
13713;DHT22;6928;50.546;7.120;2023-05-02T08:34:24;11.07;90.52
13713;DHT22;6928;50.546;7.120;2023-05-02T08:36:51;11.01;90.02
13713;DHT22;6928;50.546;7.120;2023-05-02T08:39:18;11.05;89.95
13713;DHT22;6928;50.546;7.120;2023-05-02T08:41:44;11.02;89.73
13713;DHT22;6928;50.546;7.120;2023-05-02T08:44:13;11.25;89.81
13713;DHT22;6928;50.546;7.120;2023-05-02T08:46:40;11.34;89.55
13713;DHT22;6928;50.546;7.120;2023-05-02T08:49:09;11.28;89.00
13713;DHT22;6928;50.546;7.120;2023-05-02T08:51:36;11.35;88.86
13713;DHT22;6928;50.546;7.120;2023-05-02T08:54:05;11.42;88.77
13713;DHT22;6928;50.546;7.120;2023-05-02T08:56:34;11.46;88.62
13713;DHT22;6928;50.546;7.120;2023-05-02T08:59:01;11.55;88.68
13713;DHT22;6928;50.546;7.120;2023-05-02T09:01:30;11.43;88.19
13713;DHT22;6928;50.546;7.120;2023-05-02T09:03:58;11.39;88.32
13713;DHT22;6928;50.546;7.120;2023-05-02T09:06:26;11.32;88.28
13713;DHT22;6928;50.546;7.120;2023-05-02T09:08:53;11.32;88.13
13713;DHT22;6928;50.546;7.120;2023-05-02T09:11:20;11.39;88.39
13713;DHT22;6928;50.546;7.120;2023-05-02T09:13:48;11.69;88.52
13713;DHT22;6928;50.546;7.120;2023-05-02T09:16:18;11.78;88.21
13713;DHT22;6928;50.546;7.120;2023-05-02T09:18:51;11.71;88.19
13713;DHT22;6928;50.546;7.120;2023-05-02T09:21:20;11.63;87.93
13713;DHT22;6928;50.546;7.120;2023-05-02T09:23:49;11.56;87.86
13713;DHT22;6928;50.546;7.120;2023-05-02T09:26:18;11.50;87.43
13713;DHT22;6928;50.546;7.120;2023-05-02T09:28:47;11.53;87.74
13713;DHT22;6928;50.546;7.120;2023-05-02T09:31:16;11.50;87.22
13713;DHT22;6928;50.546;7.120;2023-05-02T09:33:43;11.67;87.26
13713;DHT22;6928;50.546;7.120;2023-05-02T09:36:13;11.80;87.29
13713;DHT22;6928;50.546;7.120;2023-05-02T09:38:41;11.71;87.16
13713;DHT22;6928;50.546;7.120;2023-05-02T09:41:08;11.71;88.06
13713;DHT22;6928;50.546;7.120;2023-05-02T09:43:36;11.69;88.62
13713;DHT22;6928;50.546;7.120;2023-05-02T09:46:05;11.60;88.67
13713;DHT22;6928;50.546;7.120;2023-05-02T09:48:50;11.52;88.30
13713;DHT22;6928;50.546;7.120;2023-05-02T09:51:20;11.40;87.60
13713;DHT22;6928;50.546;7.120;2023-05-02T09:53:48;11.34;86.92
13713;DHT22;6928;50.546;7.120;2023-05-02T09:56:15;11.32;87.31
13713;DHT22;6928;50.546;7.120;2023-05-02T09:58:42;11.22;87.25
13713;DHT22;6928;50.546;7.120;2023-05-02T10:01:13;11.18;86.50
13713;DHT22;6928;50.546;7.120;2023-05-02T10:03:41;11.22;86.43
13713;DHT22;6928;50.546;7.120;2023-05-02T10:06:08;11.38;86.37
13713;DHT22;6928;50.546;7.120;2023-05-02T10:08:38;11.57;86.79
13713;DHT22;6928;50.546;7.120;2023-05-02T10:11:07;11.69;85.83
13713;DHT22;6928;50.546;7.120;2023-05-02T10:13:37;11.84;85.41
13713;DHT22;6928;50.546;7.120;2023-05-02T10:16:05;11.97;84.98
13713;DHT22;6928;50.546;7.120;2023-05-02T10:18:39;11.99;83.97
13713;DHT22;6928;50.546;7.120;2023-05-02T10:21:10;12.05;83.90
13713;DHT22;6928;50.546;7.120;2023-05-02T10:23:40;12.09;83.52
13713;DHT22;6928;50.546;7.120;2023-05-02T10:26:11;12.11;84.04
13713;DHT22;6928;50.546;7.120;2023-05-02T10:28:40;12.22;83.70
13713;DHT22;6928;50.546;7.120;2023-05-02T10:31:09;12.08;83.22
13713;DHT22;6928;50.546;7.120;2023-05-02T10:33:37;12.29;83.68
13713;DHT22;6928;50.546;7.120;2023-05-02T10:36:06;12.31;81.03
13713;DHT22;6928;50.546;7.120;2023-05-02T10:38:34;12.32;79.77
13713;DHT22;6928;50.546;7.120;2023-05-02T10:41:08;12.53;79.89
13713;DHT22;6928;50.546;7.120;2023-05-02T10:43:36;12.49;80.40
13713;DHT22;6928;50.546;7.120;2023-05-02T10:46:32;12.46;78.45
13713;DHT22;6928;50.546;7.120;2023-05-02T10:49:01;12.32;78.12
13713;DHT22;6928;50.546;7.120;2023-05-02T10:51:28;12.31;78.57
13713;DHT22;6928;50.546;7.120;2023-05-02T10:54:20;12.17;78.58
13713;DHT22;6928;50.546;7.120;2023-05-02T10:57:06;11.97;76.56
13713;DHT22;6928;50.546;7.120;2023-05-02T10:59:35;12.02;76.38
13713;DHT22;6928;50.546;7.120;2023-05-02T11:02:03;12.13;76.55
13713;DHT22;6928;50.546;7.120;2023-05-02T11:04:59;12.24;76.18
13713;DHT22;6928;50.546;7.120;2023-05-02T11:07:27;12.27;75.29
13713;DHT22;6928;50.546;7.120;2023-05-02T11:10:24;12.42;74.98
13713;DHT22;6928;50.546;7.120;2023-05-02T11:12:55;12.55;73.69
13713;DHT22;6928;50.546;7.120;2023-05-02T11:15:55;12.41;73.02
13713;DHT22;6928;50.546;7.120;2023-05-02T11:18:25;12.49;74.48
13713;DHT22;6928;50.546;7.120;2023-05-02T11:20:51;12.49;75.56
13713;DHT22;6928;50.546;7.120;2023-05-02T11:23:39;12.57;76.43
13713;DHT22;6928;50.546;7.120;2023-05-02T11:26:20;12.69;76.69
13713;DHT22;6928;50.546;7.120;2023-05-02T11:28:49;12.56;76.76
13713;DHT22;6928;50.546;7.120;2023-05-02T11:31:52;12.56;77.30
13713;DHT22;6928;50.546;7.120;2023-05-02T11:34:19;12.57;77.54
13713;DHT22;6928;50.546;7.120;2023-05-02T11:36:46;12.35;76.80
13713;DHT22;6928;50.546;7.120;2023-05-02T11:39:18;12.24;76.86
13713;DHT22;6928;50.546;7.120;2023-05-02T11:41:46;12.41;77.45
13713;DHT22;6928;50.546;7.120;2023-05-02T11:44:16;12.38;76.56
13713;DHT22;6928;50.546;7.120;2023-05-02T11:46:43;12.45;76.47
13713;DHT22;6928;50.546;7.120;2023-05-02T11:49:10;12.50;76.59
13713;DHT22;6928;50.546;7.120;2023-05-02T11:51:38;12.56;75.98
13713;DHT22;6928;50.546;7.120;2023-05-02T11:54:06;12.60;75.59
13713;DHT22;6928;50.546;7.120;2023-05-02T11:56:34;12.77;75.45
13713;DHT22;6928;50.546;7.120;2023-05-02T11:59:02;12.80;75.32
13713;DHT22;6928;50.546;7.120;2023-05-02T12:01:31;12.75;75.09
13713;DHT22;6928;50.546;7.120;2023-05-02T12:04:02;12.99;74.69
13713;DHT22;6928;50.546;7.120;2023-05-02T12:06:29;13.18;73.62
13713;DHT22;6928;50.546;7.120;2023-05-02T12:09:06;13.63;72.67
13713;DHT22;6928;50.546;7.120;2023-05-02T12:11:33;13.48;71.15
13713;DHT22;6928;50.546;7.120;2023-05-02T12:14:03;13.65;71.74
13713;DHT22;6928;50.546;7.120;2023-05-02T12:16:31;13.42;71.83
13713;DHT22;6928;50.546;7.120;2023-05-02T12:18:58;13.46;71.73
13713;DHT22;6928;50.546;7.120;2023-05-02T12:21:27;13.61;72.39
13713;DHT22;6928;50.546;7.120;2023-05-02T12:23:55;13.79;71.65
13713;DHT22;6928;50.546;7.120;2023-05-02T12:26:25;13.67;70.72
13713;DHT22;6928;50.546;7.120;2023-05-02T12:28:55;13.73;70.96
13713;DHT22;6928;50.546;7.120;2023-05-02T12:31:23;13.59;70.79
13713;DHT22;6928;50.546;7.120;2023-05-02T12:33:52;13.58;70.83
13713;DHT22;6928;50.546;7.120;2023-05-02T12:36:22;13.51;71.44
13713;DHT22;6928;50.546;7.120;2023-05-02T12:38:50;13.34;71.45
13713;DHT22;6928;50.546;7.120;2023-05-02T12:41:17;13.45;71.81
13713;DHT22;6928;50.546;7.120;2023-05-02T12:43:46;13.46;71.57
13713;DHT22;6928;50.546;7.120;2023-05-02T12:46:13;13.46;71.50
13713;DHT22;6928;50.546;7.120;2023-05-02T12:48:40;13.39;72.32
13713;DHT22;6928;50.546;7.120;2023-05-02T12:51:20;13.17;71.85
13713;DHT22;6928;50.546;7.120;2023-05-02T12:53:47;13.15;72.35
13713;DHT22;6928;50.546;7.120;2023-05-02T12:56:14;13.28;71.76
13713;DHT22;6928;50.546;7.120;2023-05-02T12:58:43;13.36;71.38
13713;DHT22;6928;50.546;7.120;2023-05-02T13:01:10;13.51;70.27
13713;DHT22;6928;50.546;7.120;2023-05-02T13:03:37;13.63;70.44
13713;DHT22;6928;50.546;7.120;2023-05-02T13:06:05;13.86;69.50
13713;DHT22;6928;50.546;7.120;2023-05-02T13:08:34;13.94;70.36
13713;DHT22;6928;50.546;7.120;2023-05-02T13:11:01;13.49;69.32
13713;DHT22;6928;50.546;7.120;2023-05-02T13:13:28;13.58;69.91
13713;DHT22;6928;50.546;7.120;2023-05-02T13:15:55;13.97;69.43
13713;DHT22;6928;50.546;7.120;2023-05-02T13:18:22;14.45;69.11
13713;DHT22;6928;50.546;7.120;2023-05-02T13:20:49;14.33;69.38
13713;DHT22;6928;50.546;7.120;2023-05-02T13:23:16;14.09;68.56
13713;DHT22;6928;50.546;7.120;2023-05-02T13:25:44;14.31;68.51
13713;DHT22;6928;50.546;7.120;2023-05-02T13:28:11;14.92;68.27
13713;DHT22;6928;50.546;7.120;2023-05-02T13:30:37;14.54;67.60
13713;DHT22;6928;50.546;7.120;2023-05-02T13:33:04;14.24;67.75
13713;DHT22;6928;50.546;7.120;2023-05-02T13:35:31;14.50;67.50
13713;DHT22;6928;50.546;7.120;2023-05-02T13:37:58;14.04;68.10
13713;DHT22;6928;50.546;7.120;2023-05-02T13:40:24;14.04;68.51
13713;DHT22;6928;50.546;7.120;2023-05-02T13:42:52;14.00;67.39
13713;DHT22;6928;50.546;7.120;2023-05-02T13:45:19;13.58;69.10
13713;DHT22;6928;50.546;7.120;2023-05-02T13:47:46;14.06;69.06
13713;DHT22;6928;50.546;7.120;2023-05-02T13:50:13;13.93;69.23
13713;DHT22;6928;50.546;7.120;2023-05-02T13:52:40;13.82;66.85
13713;DHT22;6928;50.546;7.120;2023-05-02T13:55:08;13.72;67.15
13713;DHT22;6928;50.546;7.120;2023-05-02T13:57:35;13.87;67.23
13713;DHT22;6928;50.546;7.120;2023-05-02T14:00:04;13.96;66.83
13713;DHT22;6928;50.546;7.120;2023-05-02T14:02:39;14.02;66.83
13713;DHT22;6928;50.546;7.120;2023-05-02T14:05:08;13.66;66.36
13713;DHT22;6928;50.546;7.120;2023-05-02T14:07:35;13.69;65.40
13713;DHT22;6928;50.546;7.120;2023-05-02T14:10:07;14.03;65.47
13713;DHT22;6928;50.546;7.120;2023-05-02T14:12:36;13.87;65.09
13713;DHT22;6928;50.546;7.120;2023-05-02T14:15:06;13.90;65.32
13713;DHT22;6928;50.546;7.120;2023-05-02T14:17:34;14.27;65.07
13713;DHT22;6928;50.546;7.120;2023-05-02T14:20:06;13.97;64.82
13713;DHT22;6928;50.546;7.120;2023-05-02T14:22:34;13.96;64.62
13713;DHT22;6928;50.546;7.120;2023-05-02T14:25:02;14.03;62.20
13713;DHT22;6928;50.546;7.120;2023-05-02T14:27:28;14.18;61.26
13713;DHT22;6928;50.546;7.120;2023-05-02T14:29:55;14.38;60.33
13713;DHT22;6928;50.546;7.120;2023-05-02T14:32:23;14.48;60.83
13713;DHT22;6928;50.546;7.120;2023-05-02T14:34:50;13.82;63.61
13713;DHT22;6928;50.546;7.120;2023-05-02T14:37:17;13.69;63.67
13713;DHT22;6928;50.546;7.120;2023-05-02T14:39:44;13.67;64.62
13713;DHT22;6928;50.546;7.120;2023-05-02T14:42:13;13.51;64.81
13713;DHT22;6928;50.546;7.120;2023-05-02T14:44:40;13.66;63.85
13713;DHT22;6928;50.546;7.120;2023-05-02T14:47:07;13.81;64.36
13713;DHT22;6928;50.546;7.120;2023-05-02T14:49:35;13.67;65.00
13713;DHT22;6928;50.546;7.120;2023-05-02T14:52:02;13.81;63.61
13713;DHT22;6928;50.546;7.120;2023-05-02T14:54:29;14.00;63.54
13713;DHT22;6928;50.546;7.120;2023-05-02T14:56:56;14.03;63.83
13713;DHT22;6928;50.546;7.120;2023-05-02T14:59:26;13.73;62.89
13713;DHT22;6928;50.546;7.120;2023-05-02T15:01:53;13.81;63.54
13713;DHT22;6928;50.546;7.120;2023-05-02T15:04:20;14.10;62.38
13713;DHT22;6928;50.546;7.120;2023-05-02T15:06:48;14.35;62.26
13713;DHT22;6928;50.546;7.120;2023-05-02T15:09:18;13.96;59.22
13713;DHT22;6928;50.546;7.120;2023-05-02T15:11:45;14.02;58.69
13713;DHT22;6928;50.546;7.120;2023-05-02T15:14:12;14.00;59.42
13713;DHT22;6928;50.546;7.120;2023-05-02T15:16:38;14.10;58.42
13713;DHT22;6928;50.546;7.120;2023-05-02T15:19:05;14.42;59.46
13713;DHT22;6928;50.546;7.120;2023-05-02T15:21:32;14.50;59.92
13713;DHT22;6928;50.546;7.120;2023-05-02T15:24:00;14.06;60.11
13713;DHT22;6928;50.546;7.120;2023-05-02T15:26:28;14.35;59.98
13713;DHT22;6928;50.546;7.120;2023-05-02T15:28:55;14.20;58.96
13713;DHT22;6928;50.546;7.120;2023-05-02T15:31:22;14.14;58.92
13713;DHT22;6928;50.546;7.120;2023-05-02T15:33:49;14.35;58.95
13713;DHT22;6928;50.546;7.120;2023-05-02T15:36:16;14.74;59.57
13713;DHT22;6928;50.546;7.120;2023-05-02T15:38:43;14.24;56.05
13713;DHT22;6928;50.546;7.120;2023-05-02T15:41:11;14.51;56.23
13713;DHT22;6928;50.546;7.120;2023-05-02T15:43:37;14.57;56.54
13713;DHT22;6928;50.546;7.120;2023-05-02T15:46:04;14.42;56.90
13713;DHT22;6928;50.546;7.120;2023-05-02T15:48:32;14.48;57.40
13713;DHT22;6928;50.546;7.120;2023-05-02T15:50:59;14.09;56.30
13713;DHT22;6928;50.546;7.120;2023-05-02T15:53:27;14.48;56.83
13713;DHT22;6928;50.546;7.120;2023-05-02T15:55:54;14.09;56.25